createdAt,value
2022-09-22T00:05:01.997Z,8.99
2022-09-22T00:10:28.651Z,9.00
2022-09-22T00:15:54.667Z,8.90
2022-09-22T00:21:21.824Z,8.82
2022-09-22T00:26:46.564Z,8.79
2022-09-22T00:32:12.792Z,8.68
2022-09-22T00:37:36.627Z,8.58
2022-09-22T00:43:18.081Z,8.52
2022-09-22T00:48:48.593Z,8.63
2022-09-22T00:54:19.063Z,8.72
2022-09-22T00:59:47.432Z,8.77
2022-09-22T01:05:13.506Z,8.71
2022-09-22T01:10:37.505Z,8.65
2022-09-22T01:16:19.192Z,8.66
2022-09-22T01:21:51.387Z,8.70
2022-09-22T01:27:32.116Z,8.70
2022-09-22T01:33:18.000Z,8.64
2022-09-22T01:38:49.767Z,8.64
2022-09-22T01:44:18.758Z,8.40
2022-09-22T01:49:49.214Z,8.25
2022-09-22T01:55:20.831Z,8.27
2022-09-22T02:00:50.097Z,8.31
2022-09-22T02:06:21.148Z,8.28
2022-09-22T02:11:46.065Z,8.24
2022-09-22T02:17:11.919Z,8.14
2022-09-22T02:22:37.826Z,8.08
2022-09-22T02:28:03.560Z,8.06
2022-09-22T02:33:33.788Z,7.99
2022-09-22T02:39:07.344Z,7.90
2022-09-22T02:44:41.997Z,7.85
2022-09-22T02:50:11.040Z,7.74
2022-09-22T02:55:37.392Z,7.63
2022-09-22T03:01:01.195Z,7.60
2022-09-22T03:06:25.311Z,7.64
2022-09-22T03:11:50.773Z,7.52
2022-09-22T03:17:15.138Z,7.54
2022-09-22T03:22:40.533Z,7.49
2022-09-22T03:28:06.260Z,7.52
2022-09-22T03:33:31.225Z,7.59
2022-09-22T03:38:57.207Z,7.48
2022-09-22T04:55:33.783Z,9.99
2022-09-22T05:01:03.324Z,10.52
2022-09-22T05:06:27.519Z,11.72
2022-09-22T05:11:54.379Z,13.47
2022-09-22T05:17:20.677Z,15.17
2022-09-22T05:22:45.759Z,15.96
2022-09-22T05:28:12.784Z,15.69
2022-09-22T05:33:38.888Z,14.87
2022-09-22T05:39:05.258Z,13.83
2022-09-22T05:44:31.215Z,13.33
2022-09-22T05:49:57.159Z,13.12
2022-09-22T05:55:21.837Z,12.83
2022-09-22T06:00:49.505Z,12.53
2022-09-22T06:06:15.003Z,12.16
2022-09-22T06:11:40.192Z,12.47
2022-09-22T06:17:10.724Z,12.78
2022-09-22T06:22:37.111Z,13.04
2022-09-22T06:28:04.913Z,13.24
2022-09-22T06:33:31.518Z,13.72
2022-09-22T06:38:57.057Z,14.85
2022-09-22T06:44:22.034Z,16.72
2022-09-22T06:49:47.977Z,18.14
2022-09-22T06:55:14.340Z,19.67
2022-09-22T07:00:41.844Z,20.28
2022-09-22T07:06:08.396Z,19.72
2022-09-22T07:11:39.550Z,18.55
2022-09-22T07:17:05.446Z,19.13
2022-09-22T07:22:32.849Z,18.71
2022-09-22T07:28:05.046Z,18.92
2022-09-22T07:33:29.808Z,20.08
2022-09-22T07:38:58.245Z,20.04
2022-09-22T07:44:44.290Z,20.71
2022-09-22T07:50:09.834Z,20.89
2022-09-22T07:55:36.756Z,21.32
2022-09-22T08:01:06.721Z,22.77
2022-09-22T08:06:31.723Z,23.09
2022-09-22T08:11:57.852Z,22.85
2022-09-22T08:17:25.189Z,23.02
2022-09-22T08:22:53.228Z,24.02
2022-09-22T08:28:19.130Z,24.92
2022-09-22T08:33:43.819Z,25.33
2022-09-22T08:39:08.769Z,25.40
2022-09-22T08:44:39.834Z,25.51
2022-09-22T08:50:37.338Z,25.74
2022-09-22T08:56:08.410Z,25.70
2022-09-22T09:01:52.972Z,25.59
2022-09-22T09:07:29.994Z,25.97
2022-09-22T09:13:10.859Z,25.74
2022-09-22T09:18:42.309Z,25.13
2022-09-22T09:30:03.148Z,25.05
2022-09-22T09:35:39.745Z,24.80
2022-09-22T09:41:14.697Z,24.77
2022-09-22T09:46:51.793Z,24.51
2022-09-22T09:52:20.242Z,24.37
2022-09-22T09:58:04.348Z,24.25
2022-09-22T10:03:30.599Z,24.06
2022-09-22T10:08:57.650Z,24.01
2022-09-22T10:14:21.895Z,24.39
2022-09-22T10:19:45.719Z,24.94
2022-09-22T10:25:21.856Z,25.41
2022-09-22T10:31:01.234Z,25.27
2022-09-22T10:36:27.073Z,25.32
2022-09-22T10:41:52.942Z,25.22
2022-09-22T10:47:31.200Z,24.90
2022-09-22T10:53:00.007Z,24.84
2022-09-22T10:58:46.929Z,24.21
2022-09-22T11:04:43.649Z,23.85
2022-09-22T11:10:38.272Z,23.50
2022-09-22T11:16:20.587Z,22.95
2022-09-22T11:21:58.452Z,22.89
2022-09-22T11:27:36.465Z,22.40
2022-09-22T11:33:26.031Z,22.19
2022-09-22T11:39:10.343Z,22.16
2022-09-22T11:44:43.805Z,22.17
2022-09-22T11:50:32.662Z,21.94
2022-09-22T11:56:11.870Z,21.66
2022-09-22T12:01:40.218Z,21.38
2022-09-22T12:07:11.061Z,21.21
2022-09-22T12:12:35.339Z,21.01
2022-09-22T12:18:05.780Z,20.78
2022-09-22T12:23:39.190Z,20.57
2022-09-22T12:29:09.360Z,20.45
2022-09-22T13:17:39.791Z,19.35
2022-09-22T13:23:07.616Z,19.31
2022-09-22T13:28:32.444Z,19.21
2022-09-22T13:33:58.251Z,19.01
2022-09-22T13:39:25.201Z,18.94
2022-09-22T13:44:56.818Z,18.89
2022-09-22T13:50:24.032Z,18.86
2022-09-22T13:55:50.781Z,18.73
2022-09-22T14:01:16.908Z,18.46
2022-09-22T14:06:44.406Z,18.31
2022-09-22T14:12:12.174Z,18.31
2022-09-22T14:17:36.835Z,18.29
2022-09-22T14:23:02.592Z,18.28
2022-09-22T14:28:29.750Z,18.08
2022-09-22T14:33:54.575Z,17.81
2022-09-22T14:39:31.286Z,17.72
2022-09-22T14:45:18.528Z,17.57
2022-09-22T14:50:45.740Z,17.48
2022-09-22T14:56:18.269Z,17.41
2022-09-22T15:02:09.319Z,17.16
2022-09-22T15:07:35.985Z,17.14
2022-09-22T15:13:28.166Z,17.04
2022-09-22T15:18:52.587Z,17.04
2022-09-22T15:24:25.172Z,16.95
2022-09-22T15:29:56.383Z,16.77
2022-09-22T15:35:20.980Z,16.74
2022-09-22T15:40:46.772Z,16.61
2022-09-22T15:46:28.164Z,16.49
2022-09-22T15:51:53.080Z,16.35
2022-09-22T15:57:17.552Z,16.26
2022-09-22T16:02:43.625Z,16.30
2022-09-22T16:08:08.521Z,16.20
2022-09-22T16:13:33.311Z,16.10
2022-09-22T16:19:00.654Z,16.12
2022-09-22T16:24:28.040Z,16.16
2022-09-22T16:29:52.387Z,16.15
2022-09-22T16:35:18.349Z,16.14
2022-09-22T16:40:43.086Z,16.08
2022-09-22T16:46:25.443Z,16.03
2022-09-22T16:51:54.267Z,16.04
2022-09-22T16:57:20.075Z,15.97
2022-09-22T17:02:46.848Z,15.94
2022-09-22T17:08:13.401Z,15.85
2022-09-22T17:13:37.879Z,15.74
2022-09-22T17:19:04.947Z,15.73
2022-09-22T17:24:31.458Z,15.64
2022-09-22T17:29:56.641Z,15.54
2022-09-22T17:35:21.237Z,15.49
2022-09-22T17:40:46.998Z,15.44
2022-09-22T17:46:14.689Z,15.42
2022-09-22T17:51:57.220Z,15.40
2022-09-22T17:57:25.554Z,15.38
2022-09-22T18:02:54.282Z,15.40
2022-09-22T18:08:19.401Z,15.37
2022-09-22T18:13:47.762Z,15.34
2022-09-22T18:19:12.127Z,15.35
2022-09-22T18:24:37.206Z,15.30
2022-09-22T18:30:05.127Z,15.28
2022-09-22T18:35:31.847Z,15.26
2022-09-22T18:40:57.723Z,15.20
2022-09-22T18:46:23.786Z,15.12
2022-09-22T18:51:49.655Z,15.05
2022-09-22T18:57:14.258Z,15.00
2022-09-22T19:02:40.317Z,14.95
2022-09-22T19:08:05.151Z,14.94
2022-09-22T19:13:31.269Z,14.91
2022-09-22T19:18:59.340Z,14.88
2022-09-22T19:24:25.089Z,14.84
2022-09-22T19:29:50.641Z,14.80
2022-09-22T19:35:16.896Z,14.77
2022-09-22T19:40:41.359Z,14.75
2022-09-22T19:46:06.040Z,14.72
2022-09-22T19:51:33.419Z,14.71
2022-09-22T19:57:00.261Z,14.63
2022-09-22T20:02:24.368Z,14.64
2022-09-22T20:07:49.635Z,14.66
2022-09-22T20:13:27.826Z,14.64
2022-09-22T20:18:52.181Z,14.60
2022-09-22T20:24:21.272Z,14.54
2022-09-22T20:29:46.811Z,14.46
2022-09-22T20:35:13.269Z,14.41
2022-09-22T20:40:39.183Z,14.38
2022-09-22T20:46:03.826Z,14.30
2022-09-22T20:51:28.537Z,14.23
2022-09-22T20:56:54.494Z,14.16
2022-09-22T21:02:19.242Z,14.09
2022-09-22T21:07:44.149Z,14.06
2022-09-22T21:13:09.594Z,14.02
2022-09-22T21:18:35.140Z,13.99
2022-09-22T21:24:01.965Z,13.95
2022-09-22T21:29:27.829Z,13.94
2022-09-22T21:34:52.085Z,13.91
2022-09-22T21:40:18.638Z,13.90
2022-09-22T21:45:44.247Z,13.88
2022-09-22T21:51:11.513Z,13.91
2022-09-22T21:56:36.079Z,13.91
2022-09-22T22:02:01.630Z,13.85
2022-09-22T22:07:25.750Z,13.84
2022-09-22T22:12:50.015Z,13.82
2022-09-22T22:18:15.547Z,13.78
2022-09-22T22:23:44.025Z,13.74
2022-09-22T22:29:09.198Z,13.63
2022-09-22T22:34:34.655Z,13.54
2022-09-22T22:39:58.404Z,13.52
2022-09-22T22:45:22.744Z,13.46
2022-09-22T22:50:48.203Z,13.39
2022-09-22T22:56:16.268Z,13.28
2022-09-22T23:01:44.008Z,13.26
2022-09-22T23:07:10.863Z,13.23
2022-09-22T23:12:35.764Z,13.18
2022-09-22T23:17:59.892Z,13.14
2022-09-22T23:23:25.421Z,13.06
2022-09-22T23:28:49.646Z,12.92
2022-09-22T23:34:16.307Z,12.88
2022-09-22T23:39:44.785Z,12.80
2022-09-22T23:45:10.579Z,12.78
2022-09-22T23:50:34.972Z,12.71
2022-09-22T23:56:02.441Z,12.71
